• Join FlightAware (Why Join?)
  • Login
  • US Flag 
05:47PM EDT


 

Airport Tracker/Info


-or-


 

Live Flight TrackerFlight Track Log ✈ VH-LBZ ✈ 12-Jul-2013 ✈ YBRM / BME - YPPH / PER

Flight Track Log - Related Links

Times and Time Zones

All times are in EDT time to prevent confusion due to time zone crossing. See the VH-LBZ flight status page for this flight to view local times or setup timezone preferences in your user account.

Time Position Orientation Groundspeed Altitude Reporting Facility
EDT Latitude Longitude Course Direction KTS MPH feet Rate Location/Type
06:06AM -18.0612 122.1819 202° Southwest  Level FlightAware Approximate
06:06AM -17.9463 122.2353 203° Southwest 16,100  Level Aus ATC (Calculated)
06:07AM -17.9984 122.1996 203° Southwest 16,100 120 Level Aus ATC (Calculated)
06:08AM -18.0576 122.1744 202° Southwest  Level FlightAware Approximate
06:08AM -18.1024 122.1282 202° Southwest 16,100  Level Aus ATC (Calculated)
06:09AM -18.1024 122.1282 202° Southwest 16,100 120 Level Aus ATC (Calculated)
06:10AM -18.1545 122.0925 202° Southwest 16,100 120 Level Aus ATC (Calculated)
06:11AM -18.2143 122.0674 202° Southwest  Level FlightAware Approximate
06:11AM -18.2065 122.0567 202° Southwest 16,100  Level Aus ATC (Calculated)
06:13AM -18.3024 122.0167 202° Southwest  Level FlightAware Approximate
06:14AM -18.3623 121.9917 202° Southwest  Level FlightAware Approximate
06:14AM -18.3625 121.9493 201° Southwest 16,100  Level Aus ATC (Calculated)
06:15AM -18.3625 121.9493 201° Southwest 26,000 180 Climbing Aus ATC (Calculated)
06:17AM -18.4757 121.9029 201° Southwest  Level FlightAware Approximate
06:18AM -18.5357 121.8782 201° Southwest  Level FlightAware Approximate
06:19AM -18.5958 121.8536 201° Southwest  Level FlightAware Approximate
06:20AM -18.6559 121.8289 201° Southwest  Level FlightAware Approximate
06:20AM -18.7262 121.7999 201° Southwest 26,000  Level Aus ATC (Calculated)
06:21AM -18.7262 121.7999 201° Southwest 26,000  Level Aus ATC (Calculated)
06:22AM -18.7863 121.7752 201° Southwest  Level FlightAware Approximate
06:22AM -18.8171 121.7625 201° Southwest 26,000  Level Aus ATC (Calculated)
06:22AM -18.8171 121.7625 201° Southwest 26,000  Level Aus ATC (Calculated)
06:24AM -18.9332 121.7146 201° Southwest  Level FlightAware Approximate
06:25AM -18.9933 121.6898 201° Southwest  Level FlightAware Approximate
06:26AM -19.0533 121.6650 201° Southwest  Level FlightAware Approximate
06:27AM -19.1134 121.6402 201° Southwest  Level FlightAware Approximate
06:27AM -19.0897 121.6500 201° Southwest 26,000  Level Aus ATC (Calculated)
06:29AM -19.1728 121.6156 201° Southwest  Level FlightAware Approximate
06:30AM -19.2328 121.5907 201° Southwest  Level FlightAware Approximate
06:31AM -19.2929 121.5658 201° Southwest  Level FlightAware Approximate
06:32AM -19.3529 121.5409 201° Southwest  Level FlightAware Approximate
06:33AM -19.4130 121.5160 201° Southwest  Level FlightAware Approximate
06:34AM -19.4730 121.4911 201° Southwest  Level FlightAware Approximate
06:34AM -19.5440 121.4615 201° Southwest 26,000  Level Aus ATC (Calculated)
06:34AM -19.5440 121.4615 201° Southwest 26,000  Level Aus ATC (Calculated)
06:36AM -19.6408 121.4212 201° Southwest  Level FlightAware Approximate
06:37AM -19.7000 121.3966 201° Southwest  Level FlightAware Approximate
06:37AM -19.7256 121.3859 201° Southwest 26,000  Level Aus ATC (Calculated)
06:39AM -19.8402 121.3381 201° Southwest  Level FlightAware Approximate
06:40AM -19.8994 121.3133 201° Southwest  Level FlightAware Approximate
06:40AM -19.8728 121.3244 201° Southwest 26,000  Level Aus ATC (Calculated)
06:41AM -19.9857 121.2772 201° Southwest 26,000  Level Aus ATC (Calculated)
06:43AM -20.0839 121.2361 201° Southwest  Level FlightAware Approximate
06:44AM -20.1434 121.2112 201° Southwest  Level FlightAware Approximate
06:45AM -20.2029 121.1862 201° Southwest  Level FlightAware Approximate
06:46AM -20.2623 121.1612 202° Southwest  Level FlightAware Approximate
06:47AM -20.3218 121.1362 202° Southwest  Level FlightAware Approximate
06:48AM -20.3813 121.1112 202° Southwest  Level FlightAware Approximate
06:49AM -20.4408 121.0862 202° Southwest  Level FlightAware Approximate
06:50AM -20.5002 121.0611 202° Southwest  Level FlightAware Approximate
06:51AM -20.5597 121.0361 202° Southwest  Level FlightAware Approximate
06:52AM -20.6192 121.0110 202° Southwest  Level FlightAware Approximate
06:53AM -20.6786 120.9859 202° Southwest  Level FlightAware Approximate
06:54AM -20.7381 120.9607 202° Southwest  Level FlightAware Approximate
06:55AM -20.7975 120.9356 202° Southwest  Level FlightAware Approximate
06:56AM -20.8570 120.9104 202° Southwest  Level FlightAware Approximate
06:57AM -20.9164 120.8852 202° Southwest  Level FlightAware Approximate
06:57AM -20.9446 120.8733 202° Southwest 26,000  Level Aus ATC (Calculated)
06:59AM -21.0615 120.8236 202° Southwest  Level FlightAware Approximate
07:00AM -21.1209 120.7984 202° Southwest  Level FlightAware Approximate
07:01AM -21.1803 120.7731 202° Southwest  Level FlightAware Approximate
07:02AM -21.2398 120.7478 202° Southwest  Level FlightAware Approximate
07:03AM -21.2992 120.7225 202° Southwest  Level FlightAware Approximate
07:04AM -21.3586 120.6971 202° Southwest  Level FlightAware Approximate
07:05AM -21.4180 120.6718 202° Southwest  Level FlightAware Approximate
07:06AM -21.4774 120.6464 202° Southwest  Level FlightAware Approximate
07:07AM -21.5368 120.6210 202° Southwest  Level FlightAware Approximate
07:08AM -21.5962 120.5956 202° Southwest  Level FlightAware Approximate
07:08AM -21.6771 120.5609 22° Northeast 26,000  Level Aus ATC (Calculated)
07:09AM -21.5556 120.6127 202° Southwest 218 251 26,100 60 Climbing Aus ATC (RADAR)
07:09AM -21.5942 120.5964 201° Southwest 218 251 26,100  Level Aus ATC (RADAR)
07:11AM -21.6628 120.5671 202° Southwest 226 260 26,100  Level Aus ATC (RADAR)
07:11AM -21.6966 120.5528 201° Southwest 220 253 26,100 60 Level Aus ATC (RADAR)
07:12AM -21.7296 120.5379 203° Southwest 220 253 26,200 60 Climbing Aus ATC (RADAR)
07:12AM -21.7654 120.5191 206° Southwest 217 250 26,200  Level Aus ATC (RADAR)
07:13AM -21.8121 120.5022 199° South 195 224 26,200  Level Aus ATC (RADAR)
07:14AM -21.8649 120.4740 206° Southwest 176 203 26,200  Level Aus ATC (RADAR)
07:15AM -21.8983 120.4594 202° Southwest 204 235 26,200  Level Aus ATC (RADAR)
07:15AM -21.9323 120.4456 201° Southwest 213 245 26,200  Level Aus ATC (RADAR)
07:16AM -21.9726 120.4310 199° South 220 253 26,200  Level Aus ATC (RADAR)
07:17AM -22.0036 120.4157 205° Southwest 214 246 26,200  Level Aus ATC (RADAR)
07:17AM -22.0414 120.3996 201° Southwest 217 250 26,200  Level Aus ATC (RADAR)
07:18AM -22.0978 120.3762 201° Southwest 215 247 26,200  Level Aus ATC (RADAR)
07:19AM -22.1397 120.3585 201° Southwest 214 246 26,200  Level Aus ATC (RADAR)
07:19AM -22.1673 120.3467 201° Southwest 214 246 26,200  Level Aus ATC (RADAR)
07:20AM -22.1996 120.3332 201° Southwest 214 246 26,200  Level Aus ATC (RADAR)
07:21AM -22.2358 120.3169 203° Southwest 213 245 26,200  Level Aus ATC (RADAR)
07:21AM -22.2666 120.3027 203° Southwest 210 242 26,200  Level Aus ATC (RADAR)
07:22AM -22.3089 120.2851 201° Southwest 214 246 26,200  Level Aus ATC (RADAR)
07:23AM -22.3625 120.2606 203° Southwest 208 239 26,200  Level Aus ATC (RADAR)
07:24AM -22.4041 120.2425 202° Southwest 213 245 26,200  Level Aus ATC (RADAR)
07:24AM -22.4377 120.2289 200° South 217 250 26,200  Level Aus ATC (RADAR)
07:25AM -22.4655 120.2164 203° Southwest 217 250 26,200  Level Aus ATC (RADAR)
07:25AM -22.4927 120.2039 203° Southwest 215 247 26,200  Level Aus ATC (RADAR)
07:26AM -22.5244 120.1899 202° Southwest 211 243 26,200  Level Aus ATC (RADAR)
07:26AM -22.5551 120.1758 203° Southwest 208 239 26,200  Level Aus ATC (RADAR)
07:27AM -22.5916 120.1596 202° Southwest 211 243 26,200  Level Aus ATC (RADAR)
07:28AM -22.6234 120.1463 201° Southwest 209 241 26,200  Level Aus ATC (RADAR)
07:28AM -22.6621 120.1324 198° South 215 247 26,200  Level Aus ATC (RADAR)
07:29AM -22.6923 120.1185 203° Southwest 209 241 26,200  Level Aus ATC (RADAR)
07:30AM -22.7187 120.1069 202° Southwest 207 238 26,200  Level Aus ATC (RADAR)
07:30AM -22.7555 120.0917 201° Southwest 211 243 26,200  Level Aus ATC (RADAR)
07:31AM -22.7884 120.0788 200° South 214 246 26,200  Level Aus ATC (RADAR)
07:31AM -22.8182 120.0652 203° Southwest 207 238 26,200  Level Aus ATC (RADAR)
07:32AM -22.8442 120.0538 202° Southwest 203 234 26,200  Level Aus ATC (RADAR)
07:32AM -22.8740 120.0433 198° South 213 245 26,200  Level Aus ATC (RADAR)
07:33AM -22.9047 120.0300 202° Southwest 208 239 26,200  Level Aus ATC (RADAR)
07:34AM -22.9444 120.0126 202° Southwest 205 236 26,200  Level Aus ATC (RADAR)
07:34AM -22.9763 119.9989 202° Southwest 209 241 26,200  Level Aus ATC (RADAR)
07:35AM -23.0036 119.9870 202° Southwest 210 242 26,200  Level Aus ATC (RADAR)
07:35AM -23.0351 119.9728 203° Southwest 211 243 26,200  Level Aus ATC (RADAR)
07:36AM -23.0656 119.9582 204° Southwest 209 241 26,200  Level Aus ATC (RADAR)
07:36AM -23.0962 119.9437 204° Southwest 206 237 26,200  Level Aus ATC (RADAR)
07:37AM -23.1233 119.9312 203° Southwest 209 241 26,200  Level Aus ATC (RADAR)
07:38AM -23.1545 119.9170 203° Southwest 207 238 26,200  Level Aus ATC (RADAR)
07:38AM -23.1827 119.9052 201° Southwest 212 244 26,200  Level Aus ATC (RADAR)
07:39AM -23.2232 119.8867 203° Southwest 212 244 26,200  Level Aus ATC (RADAR)
07:39AM -23.2542 119.8722 203° Southwest 209 241 26,200  Level Aus ATC (RADAR)
07:40AM -23.2878 119.8588 200° South 214 246 26,200  Level Aus ATC (RADAR)
07:41AM -23.3214 119.8449 201° Southwest 219 252 26,200  Level Aus ATC (RADAR)
07:41AM -23.3542 119.8309 201° Southwest 216 249 26,200  Level Aus ATC (RADAR)
07:42AM -23.3923 119.8153 201° Southwest 219 252 26,200  Level Aus ATC (RADAR)
07:42AM -23.4171 119.8035 204° Southwest 206 237 26,200  Level Aus ATC (RADAR)
07:43AM -23.4547 119.7888 200° South 230 265 26,200 60 Level Aus ATC (RADAR)
07:44AM -23.4930 119.7708 203° Southwest 212 244 26,300  Climbing Aus ATC (RADAR)
07:44AM -23.5283 119.7579 199° South 243 280 26,200 -120 Descending Aus ATC (RADAR)
07:45AM -23.5532 119.7459 204° Southwest 198 228 26,200  Level Aus ATC (RADAR)
07:45AM -23.5849 119.7358 196° South 217 250 26,200  Level Aus ATC (RADAR)
07:46AM -23.6237 119.7223 198° South 262 302 26,200  Level Aus ATC (RADAR)
07:46AM -23.6577 119.7096 199° South 267 307 26,200  Level Aus ATC (RADAR)
07:47AM -23.6775 119.7002 204° Southwest 204 235 26,200 60 Level Aus ATC (RADAR)
07:47AM -23.7136 119.6863 199° South 222 255 26,300  Climbing Aus ATC (RADAR)
07:48AM -23.7493 119.6721 200° South 227 261 26,200  Descending Aus ATC (RADAR)
07:49AM -23.7940 119.6532 201° Southwest 226 260 26,300  Climbing Aus ATC (RADAR)
07:50AM -23.8571 119.6284 200° South 238 274 26,200 -120 Descending Aus ATC (RADAR)
07:50AM -23.8855 119.6179 199° South 226 260 26,200  Level Aus ATC (RADAR)
07:51AM -23.9163 119.6064 199° South 228 262 26,200  Level Aus ATC (RADAR)
07:51AM -23.9522 119.5930 199° South 231 266 26,200 60 Level Aus ATC (RADAR)
07:52AM -23.9829 119.5816 199° South 231 266 26,300  Climbing Aus ATC (RADAR)
07:52AM -24.0188 119.5682 199° South 232 267 26,200  Descending Aus ATC (RADAR)
07:53AM -24.0811 119.5436 200° South 237 273 26,300  Climbing Aus ATC (RADAR)
07:54AM -24.1202 119.5289 199° South 227 261 26,200  Descending Aus ATC (RADAR)
07:55AM -24.1588 119.5139 200° South 241 277 26,300  Climbing Aus ATC (RADAR)
07:55AM -24.1941 119.5011 198° South 234 269 26,200 -120 Descending Aus ATC (RADAR)
07:56AM -24.2312 119.4862 200° South 239 275 26,200  Level Aus ATC (RADAR)
07:56AM -24.2720 119.4700 200° South 234 269 26,200 60 Level Aus ATC (RADAR)
07:57AM -24.3057 119.4574 199° South 224 258 26,300 60 Climbing Aus ATC (RADAR)
07:58AM -24.3386 119.4438 201° Southwest 241 277 26,300  Level Aus ATC (RADAR)
07:58AM -24.3790 119.4280 200° South 233 268 26,300  Level Aus ATC (RADAR)
07:59AM -24.4194 119.4131 199° South 232 267 26,300 -120 Level Aus ATC (RADAR)
07:59AM -24.4527 119.3991 201° Southwest 245 282 26,200 -120 Descending Aus ATC (RADAR)
08:00AM -24.4882 119.3856 199° South 237 273 26,200 60 Level Aus ATC (RADAR)
08:00AM -24.5174 119.3757 197° South 227 261 26,300  Climbing Aus ATC (RADAR)
08:01AM -24.5538 119.3614 200° South 233 268 26,200  Descending Aus ATC (RADAR)
08:02AM -24.5857 119.3488 200° South 239 275 26,300 60 Climbing Aus ATC (RADAR)
08:02AM -24.6224 119.3349 199° South 238 274 26,300  Level Aus ATC (RADAR)
08:03AM -24.6570 119.3234 197° South 230 265 26,300 -120 Level Aus ATC (RADAR)
08:03AM -24.6939 119.3084 200° South 237 273 26,200 -120 Descending Aus ATC (RADAR)
08:04AM -24.7296 119.2938 200° South 236 272 26,200  Level Aus ATC (RADAR)
08:05AM -24.7713 119.2776 199° South 239 275 26,200  Level Aus ATC (RADAR)
08:05AM -24.8032 119.2641 201° Southwest 242 278 26,200 60 Level Aus ATC (RADAR)
08:06AM -24.8422 119.2480 201° Southwest 232 267 26,300  Climbing Aus ATC (RADAR)
08:06AM -24.8823 119.2318 200° South 231 266 26,200  Descending Aus ATC (RADAR)
08:07AM -24.9125 119.2197 200° South 232 267 26,300 60 Climbing Aus ATC (RADAR)
08:07AM -24.9495 119.2030 202° Southwest 239 275 26,300  Level Aus ATC (RADAR)
08:08AM -24.9901 119.1864 200° South 236 272 26,300  Level Aus ATC (RADAR)
08:09AM -25.0196 119.1754 199° South 230 265 26,300 -120 Level Aus ATC (RADAR)
08:09AM -25.0655 119.1564 201° Southwest 233 268 26,200  Descending Aus ATC (RADAR)
08:10AM -25.1019 119.1410 201° Southwest 239 275 26,300  Climbing Aus ATC (RADAR)
08:10AM -25.1381 119.1254 201° Southwest 240 276 26,200  Descending Aus ATC (RADAR)
08:11AM -25.1786 119.1096 199° South 235 270 26,300 60 Climbing Aus ATC (RADAR)
08:12AM -25.2084 119.0981 199° South 230 265 26,300  Level Aus ATC (RADAR)
08:12AM -25.2440 119.0842 199° South 231 266 26,300  Level Aus ATC (RADAR)
08:13AM -25.2851 119.0686 199° South 235 270 26,300  Level Aus ATC (RADAR)
08:13AM -25.3159 119.0566 199° South 234 269 26,300  Level Aus ATC (RADAR)
08:14AM -25.3508 119.0442 198° South 230 265 26,300  Level Aus ATC (RADAR)
08:15AM -25.3930 119.0259 201° Southwest 240 276 26,300  Level Aus ATC (RADAR)
08:18AM -25.6208 118.9341 201° Southwest 26,000  Descending Aus ATC (Calculated)
08:18AM -25.6208 118.9341 201° Southwest 26,000  Level Aus ATC (Calculated)
08:20AM -25.7106 118.8978 200° South  Level FlightAware Approximate
08:21AM -25.7692 118.8741 200° South  Level FlightAware Approximate
08:22AM -25.8278 118.8504 200° South  Level FlightAware Approximate
08:23AM -25.8863 118.8266 200° South  Level FlightAware Approximate
08:24AM -25.9449 118.8028 200° South  Level FlightAware Approximate
08:25AM -26.0035 118.7790 200° South  Level FlightAware Approximate
08:26AM -26.0621 118.7552 200° South  Level FlightAware Approximate
08:27AM -26.1206 118.7314 200° South  Level FlightAware Approximate
08:28AM -26.1792 118.7075 200° South  Level FlightAware Approximate
08:29AM -26.2377 118.6836 200° South  Level FlightAware Approximate
08:30AM -26.2963 118.6597 200° South  Level FlightAware Approximate
08:31AM -26.3548 118.6357 200° South  Level FlightAware Approximate
08:32AM -26.4134 118.6118 200° South  Level FlightAware Approximate
08:33AM -26.4719 118.5878 200° South  Level FlightAware Approximate
08:34AM -26.5304 118.5638 200° South  Level FlightAware Approximate
08:35AM -26.5882 118.5375 203° Southwest  Level Estimated
08:35AM -26.5381 118.5306 202° Southwest 26,000  Level Aus ATC (Calculated)
08:35AM -26.5381 118.5306 202° Southwest 26,000  Level Aus ATC (Calculated)
08:36AM -26.5858 118.5094 202° Southwest 26,000  Level Aus ATC (Calculated)
08:36AM -26.5858 118.5094 202° Southwest 26,000  Level Aus ATC (Calculated)
08:38AM -26.6751 118.4698 202° Southwest  Level FlightAware Approximate
08:39AM -26.7332 118.4439 202° Southwest  Level FlightAware Approximate
08:40AM -26.7914 118.4180 202° Southwest  Level FlightAware Approximate
08:41AM -26.8496 118.3920 202° Southwest  Level FlightAware Approximate
08:42AM -26.9078 118.3661 202° Southwest  Level FlightAware Approximate
08:43AM -26.9659 118.3401 202° Southwest  Level FlightAware Approximate
08:44AM -27.0241 118.3140 202° Southwest  Level FlightAware Approximate
08:45AM -27.0822 118.2880 202° Southwest  Level FlightAware Approximate
08:46AM -27.1404 118.2619 202° Southwest  Level FlightAware Approximate
08:47AM -27.1985 118.2358 202° Southwest  Level FlightAware Approximate
08:48AM -27.2567 118.2097 202° Southwest  Level FlightAware Approximate
08:49AM -27.3148 118.1835 202° Southwest  Level FlightAware Approximate
08:50AM -27.3729 118.1573 202° Southwest  Level FlightAware Approximate
08:51AM -27.4310 118.1311 202° Southwest  Level FlightAware Approximate
08:52AM -27.4892 118.1049 202° Southwest  Level FlightAware Approximate
08:52AM -27.6025 118.0536 202° Southwest 26,000  Level Aus ATC (Calculated)
08:53AM -27.5473 118.0786 202° Southwest  Level FlightAware Approximate
08:53AM -27.6602 118.0275 202° Southwest 26,000  Level Aus ATC (Calculated)
08:54AM -27.6669 118.0245 202° Southwest  Level FlightAware Approximate
08:54AM -27.7107 118.0046 202° Southwest 26,000  Level Aus ATC (Calculated)
08:55AM -27.7397 117.9914 202° Southwest  Level FlightAware Approximate
08:55AM -27.7991 117.9645 202° Southwest 26,000  Level Aus ATC (Calculated)
08:56AM -27.7841 117.9713 202° Southwest  Level FlightAware Approximate
08:57AM -27.8755 117.9297 202° Southwest  Level FlightAware Approximate
08:57AM -27.8654 117.9344 202° Southwest 26,000  Level Aus ATC (Calculated)
08:58AM -27.9358 117.9022 202° Southwest  Level FlightAware Approximate
08:59AM -27.9448 117.8982 202° Southwest  Level FlightAware Approximate
09:00AM -28.0050 117.8703 200° South  Level Estimated
09:00AM -28.0144 117.8664 202° Southwest 26,000  Level Aus ATC (Calculated)
09:01AM -28.0756 117.8413 200° South  Level FlightAware Approximate
09:01AM -28.0641 117.8437 201° Southwest 26,000  Level Aus ATC (Calculated)
09:02AM -28.1252 117.8186 200° South  Level FlightAware Approximate
09:03AM -28.1864 117.7935 200° South  Level FlightAware Approximate
09:04AM -28.2475 117.7684 200° South  Level FlightAware Approximate
09:04AM -28.3017 117.7461 204° Southwest 26,000  Level Aus ATC (Calculated)
09:05AM -28.3087 117.7432 200° South  Level FlightAware Approximate
09:06AM -28.3740 117.7163 200° South  Level FlightAware Approximate
09:07AM -28.4352 117.6911 200° South  Level FlightAware Approximate
09:07AM -28.4791 117.6580 200° South 223 257 26,300  Level Aus ATC (RADAR)
09:08AM -28.5485 117.6340 197° South 223 257 26,300  Level Aus ATC (RADAR)
09:09AM -28.6107 117.6071 201° Southwest 222 255 26,300  Level Aus ATC (RADAR)
09:10AM -28.6744 117.5843 197° South 222 255 26,300  Level Aus ATC (RADAR)
09:11AM -28.7376 117.5603 198° South 220 253 26,300  Level Aus ATC (RADAR)
09:12AM -28.7980 117.5301 204° Southwest 219 252 26,300  Level Aus ATC (RADAR)
09:13AM -28.8571 117.5090 197° South 221 254 26,300  Level Aus ATC (RADAR)
09:14AM -28.9248 117.4826 199° South 221 254 26,300  Level Aus ATC (RADAR)
09:15AM -28.9822 117.4587 200° South 218 251 26,300  Level Aus ATC (RADAR)
09:16AM -29.0417 117.4274 205° Southwest 217 250 26,300  Level Aus ATC (RADAR)
09:18AM -29.1010 117.3952 205° Southwest 217 250 26,300  Level Aus ATC (RADAR)
09:19AM -29.1558 117.3656 205° Southwest 217 250 26,300  Level Aus ATC (RADAR)
09:20AM -29.2147 117.3334 206° Southwest 214 246 26,300  Level Aus ATC (RADAR)
09:21AM -29.2697 117.3049 204° Southwest 217 250 26,300  Level Aus ATC (RADAR)
09:22AM -29.3287 117.2728 205° Southwest 218 251 26,300  Level Aus ATC (RADAR)
09:23AM -29.3839 117.2441 204° Southwest 217 250 26,300  Level Aus ATC (RADAR)
09:24AM -29.4392 117.2159 204° Southwest 217 250 26,300  Level Aus ATC (RADAR)
09:25AM -29.4992 117.1839 205° Southwest 221 254 26,300  Level Aus ATC (RADAR)
09:26AM -29.5638 117.1512 204° Southwest 215 247 26,300  Level Aus ATC (RADAR)
09:27AM -29.6255 117.1229 202° Southwest 219 252 26,300  Level Aus ATC (RADAR)
09:28AM -29.6865 117.0936 203° Southwest 222 255 26,300  Level Aus ATC (RADAR)
09:29AM -29.7514 117.0607 204° Southwest 218 251 26,300  Level Aus ATC (RADAR)
09:30AM -29.8064 117.0318 205° Southwest 218 251 26,300  Level Aus ATC (RADAR)
09:31AM -29.8674 117.0031 202° Southwest 219 252 26,300  Level Aus ATC (RADAR)
09:32AM -29.9280 116.9732 203° Southwest 217 250 26,300  Level Aus ATC (RADAR)
09:33AM -29.9843 116.9459 203° Southwest 220 253 26,300  Level Aus ATC (RADAR)
09:35AM -30.0452 116.9166 203° Southwest 220 253 26,300  Level Aus ATC (RADAR)
09:36AM -30.1055 116.8874 203° Southwest 215 247 26,300  Level Aus ATC (RADAR)
09:37AM -30.1648 116.8550 205° Southwest 217 250 26,300  Level Aus ATC (RADAR)
09:38AM -30.2203 116.8268 204° Southwest 219 252 26,300  Level Aus ATC (RADAR)
09:39AM -30.2839 116.7929 205° Southwest 215 247 26,300  Level Aus ATC (RADAR)
09:40AM -30.3388 116.7645 204° Southwest 215 247 26,300  Level Aus ATC (RADAR)
09:41AM -30.3975 116.7328 205° Southwest 215 247 26,300  Level Aus ATC (RADAR)
09:42AM -30.4548 116.6989 207° Southwest 212 244 26,300  Level Aus ATC (RADAR)
09:43AM -30.5133 116.6664 206° Southwest 216 249 26,300  Level Aus ATC (RADAR)
09:44AM -30.5694 116.6405 202° Southwest 218 251 26,300  Level Aus ATC (RADAR)
09:45AM -30.6286 116.6106 204° Southwest 214 246 26,300  Level Aus ATC (RADAR)
09:46AM -30.6881 116.5802 204° Southwest 215 247 26,300  Level Aus ATC (RADAR)
09:47AM -30.7433 116.5522 204° Southwest 216 249 26,300  Level Aus ATC (RADAR)
09:48AM -30.8073 116.5191 204° Southwest 215 247 26,300  Level Aus ATC (RADAR)
09:49AM -30.8624 116.4903 204° Southwest 216 249 26,300  Level Aus ATC (RADAR)
09:50AM -30.9225 116.4603 203° Southwest 218 251 26,300 -240 Level Aus ATC (RADAR)
09:52AM -30.9826 116.4284 205° Southwest 221 254 25,800 -960 Descending Aus ATC (RADAR)
09:53AM -31.0503 116.3924 204° Southwest 250 288 24,300 -1,440 Descending Aus ATC (RADAR)
09:54AM -31.1184 116.3561 205° Southwest 250 288 22,800 -1,680 Descending Aus ATC (RADAR)
09:55AM -31.1859 116.3201 205° Southwest 270 311 20,800 -1,860 Descending Aus ATC (RADAR)
09:56AM -31.2676 116.2800 203° Southwest 267 307 18,800 -1,860 Descending Aus ATC (RADAR)
09:57AM -31.3399 116.2467 201° Southwest 256 295 16,700 -1,920 Descending Aus ATC (RADAR)
09:58AM -31.4094 116.2120 203° Southwest 245 282 14,800 -1,860 Descending Aus ATC (RADAR)
09:59AM -31.4716 116.1815 203° Southwest 242 278 12,900 -1,800 Descending Aus ATC (RADAR)
10:00AM -31.5368 116.1455 205° Southwest 238 274 11,100 -1,680 Descending Aus ATC (RADAR)
10:01AM -31.6006 116.1077 207° Southwest 235 270 9,300 -1,620 Descending Aus ATC (RADAR)
10:02AM -31.6583 116.0747 206° Southwest 228 262 7,800 -1,800 Descending Aus ATC (RADAR)
10:03AM -31.7237 116.0407 204° Southwest 218 251 5,400 -2,160 Descending Aus ATC (RADAR)
10:04AM -31.7774 116.0106 205° Southwest 207 238 3,200 -1,740 Descending Aus ATC (RADAR)
10:05AM -31.8348 115.9964 192° South 184 212 1,800 -1,020 Descending Aus ATC (RADAR)
10:07AM -31.8746 115.9841 195° South 121 139 1,100 -540 Descending Aus ATC (RADAR)
10:08AM -31.9018 115.9760 194° South 104 120 700 -480 Descending Aus ATC (RADAR)
10:09AM -31.9313 115.9676 193° South 99 114 100 -600 Descending Aus ATC (RADAR)